Thursday, November 23, 2017, 7:14 PM EST
Back to Local

KITH, Ithaca, Ithaca Tompkins Regional Airport

Location: Ithaca, NY, United States Lat: 42.491
Local Time: 7:14 PM EST ( 0:14 GMT) Lon: -76.458
Time Zone: US/Eastern Elev: 1099 ft

Show me the last for .
Show Coded

Time T Td Feel RH Dir Speed Gust Alt SLP Vis Weather Sky Remarks
2017-11-23 18:56 32 23 26 68 150° 6 - 29.97 30.00 10 OVC027 6-hr Min Temp (7pm): 32.0°F
6-hr Max Temp (7pm): 35.1°F
2017-11-23 17:56 32 23 26 68 160° 6 - 29.96 30.00 10 OVC027 None
2017-11-23 16:56 33 22 30 63 210° 3 - 29.97 30.01 10 OVC025 None
2017-11-23 15:56 33 23 27 66 210° 7 - 29.99 30.02 10 OVC021 None
2017-11-23 14:56 33 22 25 63 270° 10 - 29.99 30.02 10 BKN022 OVC100 None
2017-11-23 13:56 33 21 25 60 240° 9 - 30.00 30.04 10 SCT030 BKN080 None
2017-11-23 12:56 35 20 29 53 190° 7 - 30.02 30.06 10 BKN100 6-hr Min Temp (1pm): 26.1°F
6-hr Max Temp (1pm): 35.1°F
2017-11-23 11:56 33 20 27 58 200° 7 - 30.06 30.09 10 BKN080 None
2017-11-23 10:56 32 21 26 63 210° 6 - 30.10 30.13 10 FEW033 None
2017-11-23 09:56 30 20 25 65 230° 5 - 30.12 30.16 10 SCT033 None
2017-11-23 08:56 29 20 25 68 190° 3 - 30.11 30.15 10 BKN035 None
2017-11-23 08:29 28 19 23 68 230° 5 - 30.11 - 10 SCT027 OVC037 None
2017-11-23 07:56 27 20 20 74 250° 6 - 30.12 30.16 10 OVC027 None
2017-11-23 06:56 26 20 22 77 300° 3 - 30.11 30.15 10 FEW020 OVC030 6-hr Precip Total (7am): 0.00"
24-hr Precip Total (7am): 0.03"
6-hr Min Temp (7am): 25.0°F
6-hr Max Temp (7am): 27.0°F
2017-11-23 06:30 25 19 17 79 330° 7 - 30.11 - 10 BKN030 None
2017-11-23 06:09 25 19 17 79 320° 7 - 30.10 - 10 OVC030 None
2017-11-23 05:56 26 19 18 74 300° 8 - 30.11 30.14 10 OVC028 None
2017-11-23 04:56 27 19 19 71 270° 7 - 30.12 30.16 10 OVC023 None
2017-11-23 03:56 27 20 19 74 280° 8 - 30.12 30.16 10 OVC025 6-hr Precip Total (4am): 0.00"
2017-11-23 02:56 27 20 17 74 270° 12 - 30.14 30.18 10 OVC023 1-hr Precip Total: Trace
2017-11-23 01:56 27 20 17 74 280° 10 - 30.12 30.16 9 -SN OVC023 1-hr Precip Total: Trace
2017-11-23 00:56 27 20 17 74 310° 10 - 30.12 30.16 9 -SN OVC025 1-hr Precip Total: Trace
6-hr Precip Total (1am): 0.00"
6-hr Min Temp (1am): 27.0°F
6-hr Max Temp (1am): 28.0°F
2017-11-22 23:56 27 20 17 74 310° 12 - 30.13 30.16 10 OVC023 None
2017-11-22 22:56 27 19 16 71 310° 13 - 30.13 30.17 10 OVC025 24-hr Min Temp (11pm): 27.0°F
24-hr Max Temp (11pm): 46.0°F
2017-11-22 21:56 27 20 18 74 310° 9 - 30.14 30.18 10 OVC025 6-hr Precip Total (10pm): 0.00"
2017-11-22 20:56 28 20 15 71 280° 14 21 30.16 30.20 10 OVC027 1-hr Precip Total: Trace
2017-11-22 19:56 28 20 14 71 300° 18 24 30.16 30.19 10 OVC029 None

Support USWX by starting your Amazon purchase here.